createdAt,value
2023-04-16T00:02:16.096Z,8.31
2023-04-16T00:04:43.240Z,8.35
2023-04-16T00:07:10.529Z,8.46
2023-04-16T00:09:38.299Z,8.28
2023-04-16T00:12:06.339Z,8.20
2023-04-16T00:14:33.539Z,8.27
2023-04-16T00:17:01.622Z,8.28
2023-04-16T00:19:28.599Z,8.18
2023-04-16T00:21:55.717Z,8.12
2023-04-16T00:24:22.673Z,8.20
2023-04-16T00:26:49.579Z,8.19
2023-04-16T00:29:16.517Z,8.13
2023-04-16T00:31:43.598Z,8.08
2023-04-16T00:34:10.765Z,7.99
2023-04-16T00:36:38.566Z,8.07
2023-04-16T00:39:05.590Z,8.05
2023-04-16T00:41:32.483Z,7.99
2023-04-16T00:43:59.429Z,8.05
2023-04-16T00:46:27.055Z,8.13
2023-04-16T00:48:54.703Z,8.20
2023-04-16T00:51:21.830Z,8.19
2023-04-16T00:53:48.871Z,8.24
2023-04-16T00:56:17.621Z,8.31
2023-04-16T00:58:45.097Z,8.25
2023-04-16T01:01:14.685Z,8.31
2023-04-16T01:03:47.002Z,8.29
2023-04-16T01:06:16.983Z,8.16
2023-04-16T01:08:44.660Z,8.03
2023-04-16T01:11:12.371Z,8.09
2023-04-16T01:13:39.875Z,7.99
2023-04-16T01:16:10.332Z,7.99
2023-04-16T01:18:37.888Z,7.99
2023-04-16T01:21:05.726Z,8.03
2023-04-16T01:23:33.184Z,8.05
2023-04-16T01:26:00.281Z,8.08
2023-04-16T01:28:27.467Z,8.08
2023-04-16T01:30:54.381Z,8.05
2023-04-16T01:33:35.039Z,8.09
2023-04-16T01:36:02.085Z,8.08
2023-04-16T01:38:29.076Z,8.00
2023-04-16T01:40:58.151Z,7.95
2023-04-16T01:43:25.475Z,8.02
2023-04-16T01:45:57.254Z,7.99
2023-04-16T01:48:24.161Z,7.98
2023-04-16T01:50:51.141Z,8.00
2023-04-16T01:53:18.052Z,7.99
2023-04-16T01:55:44.953Z,7.98
2023-04-16T01:58:14.063Z,7.99
2023-04-16T02:00:41.779Z,8.03
2023-04-16T02:03:08.982Z,8.00
2023-04-16T02:05:36.069Z,7.99
2023-04-16T02:08:03.219Z,7.97
2023-04-16T02:10:30.795Z,8.04
2023-04-16T02:12:58.525Z,8.04
2023-04-16T02:15:25.588Z,8.06
2023-04-16T02:17:57.103Z,8.08
2023-04-16T02:20:25.875Z,8.04
2023-04-16T02:22:56.583Z,8.08
2023-04-16T02:25:24.604Z,8.06
2023-04-16T02:27:53.887Z,8.19
2023-04-16T02:30:31.415Z,8.15
2023-04-16T02:32:58.571Z,8.05
2023-04-16T02:35:25.624Z,8.13
2023-04-16T02:37:52.558Z,8.05
2023-04-16T02:40:19.501Z,8.10
2023-04-16T02:42:46.535Z,8.05
2023-04-16T02:45:13.687Z,7.96
2023-04-16T02:47:40.887Z,7.98
2023-04-16T02:50:09.073Z,8.04
2023-04-16T02:52:36.046Z,8.08
2023-04-16T02:55:03.117Z,8.02
2023-04-16T02:57:30.092Z,7.95
2023-04-16T02:59:56.996Z,7.94
2023-04-16T03:02:24.199Z,7.98
2023-04-16T03:04:51.311Z,7.98
2023-04-16T03:07:18.647Z,8.00
2023-04-16T03:09:45.602Z,7.92
2023-04-16T03:12:12.527Z,7.88
2023-04-16T03:14:47.520Z,7.88
2023-04-16T03:17:14.450Z,7.84
2023-04-16T03:19:41.310Z,7.85
2023-04-16T03:22:08.238Z,7.89
2023-04-16T03:24:35.323Z,7.85
2023-04-16T03:27:02.732Z,7.86
2023-04-16T03:29:29.755Z,7.89
2023-04-16T03:31:57.951Z,7.89
2023-04-16T03:34:25.650Z,7.88
2023-04-16T03:36:52.728Z,7.90
2023-04-16T03:39:19.971Z,7.86
2023-04-16T03:41:47.155Z,7.92
2023-04-16T03:44:14.709Z,7.97
2023-04-16T03:46:43.262Z,7.90
2023-04-16T03:49:10.442Z,7.81
2023-04-16T03:51:37.508Z,7.80
2023-04-16T03:54:04.729Z,7.73
2023-04-16T03:56:32.427Z,7.78
2023-04-16T03:59:00.542Z,7.74
2023-04-16T04:01:27.646Z,7.83
2023-04-16T04:03:54.701Z,7.88
2023-04-16T04:06:21.789Z,7.82
2023-04-16T04:08:48.726Z,7.76
2023-04-16T04:11:15.910Z,7.73
2023-04-16T04:13:43.859Z,7.61
2023-04-16T04:16:11.260Z,7.56
2023-04-16T04:18:38.200Z,7.53
2023-04-16T04:21:09.983Z,7.45
2023-04-16T04:23:37.536Z,7.50
2023-04-16T04:26:07.770Z,7.58
2023-04-16T04:28:35.963Z,7.57
2023-04-16T04:31:02.943Z,7.62
2023-04-16T04:33:31.106Z,7.75
2023-04-16T04:35:58.266Z,7.69
2023-04-16T04:38:25.803Z,7.71
2023-04-16T04:40:54.000Z,7.71
2023-04-16T04:43:22.713Z,7.69
2023-04-16T04:45:50.605Z,7.71
2023-04-16T04:48:18.012Z,7.75
2023-04-16T04:50:46.425Z,7.73
2023-04-16T04:53:15.175Z,7.77
2023-04-16T04:55:42.912Z,7.77
2023-04-16T04:58:09.893Z,7.81
2023-04-16T05:00:37.444Z,7.78
2023-04-16T05:03:10.711Z,7.73
2023-04-16T05:05:38.997Z,7.80
2023-04-16T05:08:06.045Z,7.88
2023-04-16T05:10:33.138Z,7.88
2023-04-16T05:13:00.011Z,7.92
2023-04-16T05:15:36.246Z,7.90
2023-04-16T05:18:03.302Z,7.93
2023-04-16T05:20:30.258Z,7.82
2023-04-16T05:22:57.215Z,7.78
2023-04-16T05:25:24.179Z,7.75
2023-04-16T05:27:51.245Z,7.74
2023-04-16T05:30:18.335Z,7.89
2023-04-16T05:32:45.552Z,7.93
2023-04-16T05:35:12.561Z,8.01
2023-04-16T05:37:39.702Z,8.03
2023-04-16T05:40:07.296Z,7.86
2023-04-16T05:42:34.194Z,7.89
2023-04-16T05:45:04.660Z,7.83
2023-04-16T05:47:31.689Z,7.82
2023-04-16T05:49:58.588Z,7.73
2023-04-16T05:52:25.517Z,7.68
2023-04-16T05:54:52.457Z,7.78
2023-04-16T05:57:19.368Z,7.68
2023-04-16T05:59:46.347Z,7.63
2023-04-16T06:02:13.503Z,7.69
2023-04-16T06:04:40.568Z,7.71
2023-04-16T06:07:07.514Z,7.72
2023-04-16T06:09:34.425Z,7.55
2023-04-16T06:12:01.563Z,7.66
2023-04-16T06:14:28.484Z,7.58
2023-04-16T06:16:55.451Z,7.53
2023-04-16T06:19:22.410Z,7.47
2023-04-16T06:21:51.140Z,7.53
2023-04-16T06:24:18.710Z,7.61
2023-04-16T06:26:45.973Z,7.53
2023-04-16T06:29:13.003Z,7.58
2023-04-16T06:31:40.022Z,7.65
2023-04-16T06:34:06.955Z,7.67
2023-04-16T06:36:34.018Z,7.61
2023-04-16T06:39:00.894Z,7.57
2023-04-16T06:41:28.909Z,7.64
2023-04-16T06:43:56.985Z,7.72
2023-04-16T06:46:23.990Z,7.68
2023-04-16T06:48:51.121Z,7.79
2023-04-16T06:51:18.114Z,7.86
2023-04-16T06:53:45.054Z,7.90
2023-04-16T06:56:12.003Z,7.89
2023-04-16T06:58:38.911Z,7.93
2023-04-16T07:01:06.153Z,7.87
2023-04-16T07:03:33.366Z,8.03
2023-04-16T07:06:00.436Z,8.16
2023-04-16T07:08:27.346Z,8.21
2023-04-16T07:10:54.633Z,8.39
2023-04-16T07:13:21.932Z,8.40
2023-04-16T07:15:48.925Z,8.68
2023-04-16T07:18:16.075Z,8.64
2023-04-16T07:20:43.113Z,8.55
2023-04-16T07:23:10.040Z,8.69
2023-04-16T07:25:37.038Z,8.75
2023-04-16T07:28:04.492Z,8.96
2023-04-16T07:30:34.451Z,9.08
2023-04-16T07:33:05.756Z,9.22
2023-04-16T07:35:32.961Z,9.58
2023-04-16T07:38:00.001Z,9.76
2023-04-16T07:40:27.065Z,9.40
2023-04-16T07:42:55.648Z,9.44
2023-04-16T07:45:23.673Z,9.20
2023-04-16T07:47:51.950Z,9.43
2023-04-16T07:50:19.733Z,9.02
2023-04-16T07:52:47.529Z,9.26
2023-04-16T07:55:14.599Z,9.38
2023-04-16T07:57:41.919Z,9.09
2023-04-16T08:00:12.637Z,8.74
2023-04-16T08:02:43.663Z,8.55
2023-04-16T08:05:11.423Z,8.46
2023-04-16T08:07:38.386Z,8.38
2023-04-16T08:10:06.350Z,8.22
2023-04-16T08:12:33.296Z,8.34
2023-04-16T08:15:00.234Z,8.53
2023-04-16T08:17:29.212Z,8.50
2023-04-16T08:19:56.455Z,8.63
2023-04-16T08:22:23.541Z,8.77
2023-04-16T08:24:50.704Z,8.85
2023-04-16T08:27:19.273Z,8.72
2023-04-16T08:29:47.790Z,8.82
2023-04-16T08:32:14.813Z,8.96
2023-04-16T08:34:42.782Z,8.78
2023-04-16T08:37:10.393Z,8.91
2023-04-16T08:39:38.001Z,8.80
2023-04-16T08:42:06.444Z,8.64
2023-04-16T08:44:37.745Z,8.71
2023-04-16T08:47:08.082Z,8.81
2023-04-16T08:49:36.689Z,8.93
2023-04-16T08:52:07.042Z,8.96
2023-04-16T08:55:06.170Z,9.02
2023-04-16T08:57:54.685Z,9.00
2023-04-16T09:00:22.652Z,9.14
2023-04-16T09:02:50.724Z,9.17
2023-04-16T09:05:21.074Z,9.12
2023-04-16T09:07:48.679Z,9.48
2023-04-16T09:10:16.692Z,9.47
2023-04-16T09:12:45.310Z,9.59
2023-04-16T09:15:13.265Z,9.70
2023-04-16T09:17:41.404Z,9.76
2023-04-16T09:20:09.668Z,9.74
2023-04-16T09:22:37.569Z,9.59
2023-04-16T09:25:05.189Z,9.64
2023-04-16T09:27:32.496Z,9.69
2023-04-16T09:29:59.453Z,9.83
2023-04-16T09:32:27.817Z,9.66
2023-04-16T09:35:04.105Z,9.81
2023-04-16T09:37:31.794Z,9.85
2023-04-16T09:40:01.603Z,9.64
2023-04-16T09:42:32.178Z,9.68
2023-04-16T09:45:01.336Z,9.57
2023-04-16T09:47:41.557Z,9.35
2023-04-16T09:50:13.148Z,9.49
2023-04-16T09:52:40.816Z,9.55
2023-04-16T09:55:08.064Z,9.38
2023-04-16T09:57:38.248Z,9.34
2023-04-16T10:00:08.090Z,9.39
2023-04-16T10:02:35.851Z,9.37
2023-04-16T10:05:03.471Z,9.29
2023-04-16T10:07:34.663Z,9.15
2023-04-16T10:10:01.784Z,9.29
2023-04-16T10:12:29.868Z,9.19
2023-04-16T10:14:56.866Z,9.27
2023-04-16T10:17:24.991Z,9.41
2023-04-16T10:19:52.712Z,9.45
2023-04-16T10:22:19.796Z,9.25
2023-04-16T10:24:48.044Z,9.21
2023-04-16T10:27:15.003Z,9.02
2023-04-16T10:29:41.989Z,8.89
2023-04-16T10:32:09.023Z,8.75
2023-04-16T10:34:36.824Z,8.74
2023-04-16T10:37:03.748Z,8.71
2023-04-16T10:39:30.695Z,8.86
2023-04-16T10:42:09.079Z,8.97
2023-04-16T10:44:36.836Z,8.90
2023-04-16T10:47:13.556Z,9.07
2023-04-16T10:49:41.887Z,9.09
2023-04-16T10:52:12.454Z,8.99
2023-04-16T10:54:40.517Z,8.85
2023-04-16T10:57:15.179Z,8.95
2023-04-16T10:59:43.999Z,8.95
2023-04-16T11:02:18.924Z,9.02
2023-04-16T11:04:50.222Z,9.12
2023-04-16T11:07:19.892Z,9.12
2023-04-16T11:10:00.855Z,9.30
2023-04-16T11:12:38.306Z,9.45
2023-04-16T11:15:16.503Z,9.30
2023-04-16T11:17:51.919Z,9.47
2023-04-16T11:20:19.858Z,9.47
2023-04-16T11:22:48.754Z,9.37
2023-04-16T11:25:25.159Z,9.44
2023-04-16T11:27:53.426Z,9.25
2023-04-16T11:30:32.303Z,9.24
2023-04-16T11:32:59.459Z,9.36
2023-04-16T11:35:26.416Z,9.44
2023-04-16T11:37:57.150Z,9.40
2023-04-16T11:40:24.911Z,9.48
2023-04-16T11:42:55.369Z,9.54
2023-04-16T11:45:25.456Z,9.68
2023-04-16T11:47:55.729Z,9.74
2023-04-16T11:50:23.890Z,9.65
2023-04-16T11:52:52.712Z,9.63
2023-04-16T11:55:20.834Z,9.67
2023-04-16T11:57:48.434Z,9.50
2023-04-16T12:00:16.613Z,9.65
2023-04-16T12:02:46.109Z,9.74
2023-04-16T12:05:48.812Z,9.71
2023-04-16T12:08:32.530Z,9.68
2023-04-16T12:11:00.203Z,9.50
2023-04-16T12:13:27.250Z,9.66
2023-04-16T12:15:56.356Z,10.04
2023-04-16T12:18:27.293Z,10.13
2023-04-16T12:20:54.581Z,10.27
2023-04-16T12:23:31.324Z,10.41
2023-04-16T12:26:02.987Z,10.36
2023-04-16T12:28:34.472Z,10.31
2023-04-16T12:31:06.139Z,10.43
2023-04-16T12:33:33.284Z,10.44
2023-04-16T12:36:00.507Z,10.37
2023-04-16T12:38:28.227Z,10.54
2023-04-16T12:40:57.417Z,10.58
2023-04-16T12:43:25.476Z,10.72
2023-04-16T12:45:52.790Z,10.75
2023-04-16T12:48:19.778Z,10.86
2023-04-16T12:50:46.865Z,10.90
2023-04-16T12:53:14.070Z,11.06
2023-04-16T12:55:41.378Z,10.84
2023-04-16T12:58:11.955Z,10.86
2023-04-16T13:00:40.640Z,11.08
2023-04-16T13:03:08.052Z,11.10
2023-04-16T13:05:35.442Z,11.43
2023-04-16T13:08:02.426Z,11.38
2023-04-16T13:10:32.407Z,11.14
2023-04-16T13:12:59.381Z,11.05
2023-04-16T13:15:26.504Z,11.31
2023-04-16T13:17:53.457Z,11.63
2023-04-16T13:20:22.495Z,12.20
2023-04-16T13:22:51.104Z,12.10
2023-04-16T13:25:17.998Z,12.72
2023-04-16T13:27:45.090Z,13.05
2023-04-16T13:30:12.377Z,12.56
2023-04-16T13:32:39.391Z,12.18
2023-04-16T13:35:06.788Z,12.24
2023-04-16T13:37:34.826Z,11.94
2023-04-16T13:40:02.121Z,11.48
2023-04-16T13:42:29.155Z,11.91
2023-04-16T13:44:57.403Z,12.29
2023-04-16T13:47:24.615Z,12.59
2023-04-16T13:49:51.670Z,12.75
2023-04-16T13:52:18.731Z,13.05
2023-04-16T13:54:46.946Z,13.22
2023-04-16T13:57:20.140Z,13.16
2023-04-16T13:59:47.160Z,13.25
2023-04-16T14:02:14.261Z,12.75
2023-04-16T14:04:41.865Z,12.61
2023-04-16T14:07:09.043Z,12.73
2023-04-16T14:09:36.187Z,13.04
2023-04-16T14:12:03.289Z,13.26
2023-04-16T14:14:30.368Z,13.22
2023-04-16T14:16:59.185Z,13.40
2023-04-16T14:19:26.422Z,13.60
2023-04-16T14:21:53.383Z,13.61
2023-04-16T14:24:20.373Z,13.51
2023-04-16T14:26:47.482Z,13.65
2023-04-16T14:29:14.508Z,13.96
2023-04-16T14:31:41.828Z,14.07
2023-04-16T14:34:08.920Z,14.13
2023-04-16T14:36:36.762Z,14.43
2023-04-16T14:39:03.923Z,14.55
2023-04-16T14:41:31.517Z,14.09
2023-04-16T14:44:00.105Z,13.89
2023-04-16T14:46:27.401Z,14.21
2023-04-16T14:48:54.341Z,14.18
2023-04-16T14:51:21.352Z,13.77
2023-04-16T14:53:51.562Z,13.53
2023-04-16T14:56:18.595Z,13.03
2023-04-16T14:58:45.621Z,12.76
2023-04-16T15:01:14.857Z,12.67
2023-04-16T15:03:43.263Z,12.53
2023-04-16T15:06:11.483Z,12.31
2023-04-16T15:08:40.821Z,12.26
2023-04-16T15:11:07.958Z,12.32
2023-04-16T15:13:34.897Z,12.17
2023-04-16T15:16:02.201Z,12.12
2023-04-16T15:18:29.670Z,11.98
2023-04-16T15:20:57.102Z,11.99
2023-04-16T15:23:24.267Z,12.03
2023-04-16T15:25:51.250Z,11.75
2023-04-16T15:28:21.371Z,11.70
2023-04-16T15:30:52.720Z,11.58
2023-04-16T15:33:26.976Z,11.58
2023-04-16T15:35:54.116Z,11.66
2023-04-16T15:38:23.542Z,11.42
2023-04-16T15:40:51.155Z,11.34
2023-04-16T15:43:18.110Z,11.29
2023-04-16T15:45:45.044Z,11.17
2023-04-16T15:48:12.043Z,11.19
2023-04-16T15:50:39.200Z,11.21
2023-04-16T15:53:06.374Z,11.17
2023-04-16T15:55:33.320Z,11.20
2023-04-16T15:58:00.327Z,11.09
2023-04-16T16:00:27.790Z,11.12
2023-04-16T16:02:54.820Z,11.13
2023-04-16T16:05:21.948Z,11.05
2023-04-16T16:07:48.986Z,11.09
2023-04-16T16:10:15.989Z,11.08
2023-04-16T16:12:43.074Z,11.02
2023-04-16T16:15:11.354Z,11.11
2023-04-16T16:17:38.847Z,11.04
2023-04-16T16:20:09.661Z,11.07
2023-04-16T16:22:38.388Z,11.20
2023-04-16T16:25:06.089Z,11.25
2023-04-16T16:27:33.063Z,11.31
2023-04-16T16:30:01.067Z,11.36
2023-04-16T16:32:28.061Z,11.34
2023-04-16T16:34:55.039Z,11.34
2023-04-16T16:37:22.128Z,11.43
2023-04-16T16:39:49.064Z,11.43
2023-04-16T16:42:19.046Z,11.34
2023-04-16T16:44:47.688Z,11.41
2023-04-16T16:47:14.645Z,11.30
2023-04-16T16:49:41.684Z,11.36
2023-04-16T16:52:08.728Z,11.40
2023-04-16T16:54:35.721Z,11.43
2023-04-16T16:57:03.020Z,11.27
2023-04-16T16:59:29.933Z,11.31
2023-04-16T17:01:56.873Z,11.32
2023-04-16T17:04:24.090Z,11.25
2023-04-16T17:06:51.232Z,11.30
2023-04-16T17:09:18.375Z,11.38
2023-04-16T17:11:45.579Z,11.41
2023-04-16T17:14:12.574Z,11.42
2023-04-16T17:16:39.894Z,11.35
2023-04-16T17:19:06.998Z,11.32
2023-04-16T17:21:34.128Z,11.38
2023-04-16T17:24:01.259Z,11.30
2023-04-16T17:26:28.321Z,11.33
2023-04-16T17:28:56.906Z,11.19
2023-04-16T17:31:25.618Z,11.23
2023-04-16T17:33:54.038Z,11.17
2023-04-16T17:36:23.826Z,11.11
2023-04-16T17:38:50.890Z,11.23
2023-04-16T17:41:17.907Z,11.04
2023-04-16T17:43:48.008Z,11.01
2023-04-16T17:46:14.939Z,11.01
2023-04-16T17:48:42.009Z,11.03
2023-04-16T17:51:12.673Z,10.97
2023-04-16T17:53:39.838Z,10.99
2023-04-16T17:56:07.171Z,10.97
2023-04-16T17:58:35.479Z,11.05
2023-04-16T18:01:03.521Z,11.02
2023-04-16T18:03:33.902Z,10.94
2023-04-16T18:06:03.901Z,10.91
2023-04-16T18:08:34.144Z,10.94
2023-04-16T18:49:03.231Z,10.88
2023-04-16T18:51:30.200Z,10.88
2023-04-16T18:53:57.130Z,10.87
2023-04-16T18:56:24.426Z,10.82
2023-04-16T18:58:51.582Z,10.96
2023-04-16T19:01:18.636Z,10.94
2023-04-16T19:03:46.010Z,10.86
2023-04-16T19:06:13.073Z,10.87
2023-04-16T19:08:40.073Z,10.95
2023-04-16T19:11:07.119Z,10.96
2023-04-16T19:13:34.232Z,11.01
2023-04-16T19:16:02.469Z,10.93
2023-04-16T19:18:29.448Z,10.94
2023-04-16T19:21:00.961Z,10.95
2023-04-16T19:23:28.505Z,10.92
2023-04-16T19:25:58.719Z,10.89
2023-04-16T19:28:26.053Z,10.86
2023-04-16T19:30:54.022Z,10.75
2023-04-16T19:33:21.231Z,10.82
2023-04-16T19:35:48.353Z,10.86
2023-04-16T19:38:15.863Z,10.91
2023-04-16T19:40:47.048Z,10.91
2023-04-16T19:43:14.278Z,10.89
2023-04-16T19:45:52.570Z,10.95
2023-04-16T19:48:20.249Z,10.91
2023-04-16T19:50:47.617Z,10.95
2023-04-16T19:53:15.056Z,10.91
2023-04-16T19:55:42.400Z,10.85
2023-04-16T19:58:09.929Z,10.84
2023-04-16T20:00:41.011Z,10.92
2023-04-16T20:03:08.408Z,10.75
2023-04-16T20:05:35.632Z,10.73
2023-04-16T20:08:02.747Z,10.81
2023-04-16T20:10:31.601Z,10.80
2023-04-16T20:12:58.840Z,10.71
2023-04-16T20:15:26.032Z,10.72
2023-04-16T20:17:53.573Z,10.62
2023-04-16T20:20:23.862Z,10.72
2023-04-16T20:22:51.194Z,10.58
2023-04-16T20:25:19.571Z,10.35
2023-04-16T20:27:46.854Z,10.29
2023-04-16T20:30:14.239Z,10.27
2023-04-16T20:32:41.225Z,10.17
2023-04-16T20:35:11.369Z,10.00
2023-04-16T20:37:39.376Z,9.76
2023-04-16T20:40:11.078Z,9.66
2023-04-16T20:42:38.206Z,9.56
2023-04-16T20:45:05.904Z,9.48
2023-04-16T20:47:35.021Z,9.57
2023-04-16T20:50:03.009Z,9.55
2023-04-16T20:52:29.976Z,9.60
2023-04-16T20:54:56.958Z,9.59
2023-04-16T20:57:24.170Z,9.65
2023-04-16T20:59:52.558Z,9.78
2023-04-16T21:02:20.899Z,9.65
2023-04-16T21:04:48.174Z,9.57
2023-04-16T21:07:15.778Z,9.63
2023-04-16T21:09:42.774Z,9.70
2023-04-16T21:12:09.768Z,9.68
2023-04-16T21:14:37.133Z,9.64
2023-04-16T21:17:04.290Z,9.83
2023-04-16T21:19:31.521Z,9.81
2023-04-16T21:21:58.752Z,9.81
2023-04-16T21:24:25.704Z,9.74
2023-04-16T21:26:52.644Z,9.70
2023-04-16T21:29:19.530Z,9.65
2023-04-16T21:31:46.849Z,9.62
2023-04-16T21:34:13.743Z,9.63
2023-04-16T21:36:43.714Z,9.69
2023-04-16T21:39:11.866Z,9.70
2023-04-16T21:41:39.111Z,9.78
2023-04-16T21:44:06.143Z,9.73
2023-04-16T21:46:33.160Z,9.75
2023-04-16T21:49:00.202Z,10.00
2023-04-16T21:51:30.149Z,9.85
2023-04-16T21:53:57.457Z,9.99
2023-04-16T21:56:25.251Z,9.95
2023-04-16T21:58:52.320Z,9.79
2023-04-16T22:01:19.313Z,9.67
2023-04-16T22:03:50.985Z,9.48
2023-04-16T22:06:18.211Z,9.55
2023-04-16T22:08:45.277Z,9.45
2023-04-16T22:11:12.339Z,9.32
2023-04-16T22:13:42.267Z,9.22
2023-04-16T22:16:11.596Z,9.12
2023-04-16T22:18:38.930Z,9.17
2023-04-16T22:21:06.234Z,9.10
2023-04-16T22:23:33.187Z,9.23
2023-04-16T22:26:03.288Z,9.27
2023-04-16T22:28:30.274Z,9.29
2023-04-16T22:30:57.611Z,9.27
2023-04-16T22:33:24.608Z,9.44
2023-04-16T22:35:52.037Z,9.32
2023-04-16T22:38:19.088Z,9.37
2023-04-16T22:40:48.596Z,9.68
2023-04-16T22:43:17.813Z,9.42
2023-04-16T22:45:46.541Z,9.34
2023-04-16T22:48:13.626Z,9.24
2023-04-16T22:50:41.606Z,9.44
2023-04-16T22:53:08.608Z,9.49
2023-04-16T22:55:35.489Z,9.53
2023-04-16T22:58:02.512Z,9.39
2023-04-16T23:00:29.876Z,9.54
2023-04-16T23:02:56.975Z,9.61
2023-04-16T23:05:24.285Z,9.65
2023-04-16T23:07:51.328Z,9.59
2023-04-16T23:10:18.218Z,9.64
2023-04-16T23:12:45.237Z,9.74
2023-04-16T23:15:12.245Z,10.14
2023-04-16T23:17:40.429Z,10.22
2023-04-16T23:20:10.302Z,10.26
2023-04-16T23:22:37.294Z,10.33
2023-04-16T23:25:04.464Z,10.18
2023-04-16T23:27:32.719Z,10.06
2023-04-16T23:29:59.691Z,10.01
2023-04-16T23:32:26.879Z,9.88
2023-04-16T23:34:53.924Z,9.80
2023-04-16T23:37:21.091Z,9.80
2023-04-16T23:39:48.059Z,9.68
2023-04-16T23:42:15.102Z,9.65
2023-04-16T23:44:42.166Z,9.64
2023-04-16T23:47:09.154Z,9.64
2023-04-16T23:49:36.044Z,9.60
2023-04-16T23:52:03.227Z,9.75
2023-04-16T23:54:30.123Z,9.83
2023-04-16T23:56:57.391Z,10.09
2023-04-16T23:59:24.527Z,10.00
